Time;durP1;ratioP1;P1;durP2;ratioP2;P2;SDS_P1;SDS_P2;PMS_P1;PMS_P2;Temp;Humidity;BMP_temperature;BMP_pressure;BME280_temperature;BME280_humidity;BME280_pressure;Samples;Min_cycle;Max_cycle;Signal;HPM_P1;HPM_P2
2023/12/23 00:00:08;;;;;;;2.28;1.90;;;22.50;42.10;;;;;;5111829;28;20034;-40
2023/12/23 00:02:34;;;;;;;2.90;2.10;;;22.50;42.20;;;;;;5113984;28;20099;-41
2023/12/23 00:05:00;;;;;;;2.58;2.05;;;22.40;42.20;;;;;;5120894;27;20272;-42
2023/12/23 00:07:26;;;;;;;3.78;2.00;;;22.40;42.30;;;;;;5118522;28;20030;-42
2023/12/23 00:09:52;;;;;;;2.55;2.00;;;22.40;43.00;;;;;;5108568;28;20130;-41
2023/12/23 00:12:18;;;;;;;4.30;1.95;;;22.40;42.20;;;;;;5108956;28;20035;-43
2023/12/23 00:14:44;;;;;;;2.80;1.90;;;22.40;43.00;;;;;;5105199;28;20503;-43
2023/12/23 00:17:11;;;;;;;2.30;1.90;;;22.50;43.20;;;;;;5109973;28;20040;-43
2023/12/23 00:19:37;;;;;;;2.35;1.80;;;22.50;42.90;;;;;;5116576;28;20028;-43
2023/12/23 00:22:03;;;;;;;2.20;2.00;;;22.60;42.70;;;;;;5108269;28;20052;-43
2023/12/23 00:24:31;;;;;;;3.55;2.30;;;22.60;42.30;;;;;;5118878;28;20028;-42
2023/12/23 00:26:57;;;;;;;2.72;1.88;;;22.50;42.20;;;;;;5106257;28;20036;-43
2023/12/23 00:29:24;;;;;;;5.78;2.20;;;22.50;42.90;;;;;;5123869;27;20644;-43
2023/12/23 00:31:51;;;;;;;2.10;1.70;;;22.40;42.80;;;;;;5120126;28;20032;-43
2023/12/23 00:34:17;;;;;;;3.95;1.90;;;22.40;42.80;;;;;;5105515;28;20552;-43
2023/12/23 00:36:43;;;;;;;8.65;2.35;;;22.50;44.20;;;;;;5111771;28;20034;-43
2023/12/23 00:39:09;;;;;;;2.22;1.92;;;22.50;44.20;;;;;;5109590;28;20754;-43
2023/12/23 00:41:37;;;;;;;4.05;2.35;;;22.50;44.30;;;;;;5103724;28;20024;-43
2023/12/23 00:44:03;;;;;;;5.10;2.20;;;22.40;44.30;;;;;;5115904;28;20054;-43
2023/12/23 00:46:29;;;;;;;4.37;2.37;;;22.40;44.60;;;;;;5112382;28;20056;-43
2023/12/23 00:48:55;;;;;;;5.03;2.25;;;22.40;44.50;;;;;;5086529;28;20119;-43
2023/12/23 00:51:22;;;;;;;2.95;2.03;;;22.30;44.60;;;;;;5108430;28;20024;-43
2023/12/23 00:53:48;;;;;;;3.10;2.10;;;22.30;44.00;;;;;;5109859;28;20096;-44
2023/12/23 00:56:21;;;;;;;4.32;2.13;;;22.30;44.00;;;;;;5108368;28;20028;-43
2023/12/23 00:58:47;;;;;;;2.72;2.05;;;22.40;43.90;;;;;;5109811;28;20044;-43
2023/12/23 01:01:14;;;;;;;2.20;1.73;;;22.50;43.90;;;;;;5113353;28;20082;-43
2023/12/23 01:03:40;;;;;;;4.15;1.92;;;22.50;43.70;;;;;;5109804;28;20031;-44
2023/12/23 01:06:06;;;;;;;2.05;1.85;;;22.60;43.50;;;;;;5106584;28;20023;-44
2023/12/23 01:08:32;;;;;;;3.42;2.10;;;22.70;43.50;;;;;;5108722;28;20039;-43
2023/12/23 01:10:59;;;;;;;3.67;1.88;;;22.80;43.40;;;;;;5104291;28;20031;-43
2023/12/23 01:13:25;;;;;;;2.47;2.03;;;22.80;42.90;;;;;;5110053;28;20047;-42
2023/12/23 01:15:51;;;;;;;2.30;1.80;;;22.80;42.80;;;;;;5114465;28;20067;-42
2023/12/23 01:18:17;;;;;;;3.42;1.90;;;22.80;43.00;;;;;;5113328;28;20036;-43
2023/12/23 01:20:44;;;;;;;2.38;1.90;;;22.70;43.30;;;;;;5113857;28;20026;-43
2023/12/23 01:23:10;;;;;;;2.67;2.42;;;22.70;43.40;;;;;;5113720;28;20043;-43
2023/12/23 01:25:36;;;;;;;5.53;2.60;;;22.60;43.40;;;;;;5097204;28;20027;-42
2023/12/23 01:28:06;;;;;;;2.85;1.80;;;22.60;43.50;;;;;;5116680;28;20280;-42
2023/12/23 01:30:32;;;;;;;2.33;1.88;;;22.50;43.00;;;;;;5117263;28;20085;-42
2023/12/23 01:32:59;;;;;;;2.05;1.85;;;22.50;43.00;;;;;;5120316;27;20073;-41
2023/12/23 01:35:25;;;;;;;2.53;1.90;;;22.50;42.90;;;;;;5114593;28;20043;-42
2023/12/23 01:37:51;;;;;;;3.10;2.28;;;22.50;43.30;;;;;;5100464;28;20126;-43
2023/12/23 01:40:17;;;;;;;3.05;2.20;;;22.50;43.40;;;;;;5114103;28;20034;-42
2023/12/23 01:42:43;;;;;;;4.07;2.45;;;22.50;43.50;;;;;;5116561;28;20384;-42
2023/12/23 01:45:10;;;;;;;2.72;2.13;;;22.40;43.70;;;;;;5111481;28;20016;-43
2023/12/23 01:47:38;;;;;;;2.35;1.92;;;22.30;43.60;;;;;;5110175;28;20082;-43
2023/12/23 01:50:05;;;;;;;1.77;1.67;;;22.30;43.20;;;;;;5095651;28;20044;-44
2023/12/23 01:52:31;;;;;;;2.40;2.05;;;22.50;42.90;;;;;;5114314;28;20091;-43
2023/12/23 01:54:57;;;;;;;2.80;2.10;;;22.50;43.50;;;;;;5106906;28;20097;-44
2023/12/23 01:57:23;;;;;;;2.30;2.10;;;22.50;43.10;;;;;;5113906;28;20036;-43
2023/12/23 01:59:50;;;;;;;2.90;2.03;;;22.50;43.30;;;;;;5082989;28;20030;-43
2023/12/23 02:02:16;;;;;;;3.00;1.83;;;22.40;43.30;;;;;;5096245;28;20123;-44
2023/12/23 02:04:42;;;;;;;2.73;1.90;;;22.30;43.10;;;;;;5096270;28;20290;-43
2023/12/23 02:07:09;;;;;;;2.83;2.00;;;22.30;42.90;;;;;;5116723;28;20310;-43
2023/12/23 02:09:35;;;;;;;2.38;2.17;;;22.40;42.80;;;;;;5119476;28;20048;-44
2023/12/23 02:12:12;;;;;;;2.65;2.08;;;22.30;43.10;;;;;;5115790;28;20028;-43
2023/12/23 02:14:58;;;;;;;3.30;2.17;;;22.30;43.30;;;;;;5105647;28;20020;-43
2023/12/23 02:17:24;;;;;;;3.47;2.30;;;22.20;43.30;;;;;;5113222;28;20040;-43
2023/12/23 02:19:50;;;;;;;4.53;2.15;;;22.20;43.30;;;;;;5112143;27;20035;-42
2023/12/23 02:22:16;;;;;;;3.65;2.13;;;22.20;43.10;;;;;;5113768;28;20040;-42
2023/12/23 02:24:42;;;;;;;2.50;2.00;;;22.30;42.80;;;;;;5120654;27;20035;-42
2023/12/23 02:27:11;;;;;;;2.90;2.33;;;22.50;42.80;;;;;;5095997;28;20031;-42
2023/12/23 02:29:38;;;;;;;2.92;2.30;;;22.40;42.80;;;;;;5115847;28;20055;-43
2023/12/23 02:32:05;;;;;;;2.55;2.28;;;22.30;43.00;;;;;;5110758;28;20023;-42
2023/12/23 02:34:31;;;;;;;3.70;2.50;;;22.30;43.20;;;;;;5091236;28;20087;-41
2023/12/23 02:36:57;;;;;;;3.22;2.15;;;22.20;43.30;;;;;;5120016;28;20039;-40
2023/12/23 02:39:23;;;;;;;2.67;2.17;;;22.10;42.90;;;;;;5113731;28;20040;-41
2023/12/23 02:41:49;;;;;;;3.45;2.83;;;22.20;42.90;;;;;;5123387;28;20476;-41
2023/12/23 02:44:15;;;;;;;2.75;2.38;;;22.20;43.00;;;;;;5117131;27;20038;-41
2023/12/23 02:46:41;;;;;;;2.58;2.25;;;22.20;43.20;;;;;;5118800;28;20065;-43
2023/12/23 02:49:08;;;;;;;2.50;2.30;;;22.10;43.20;;;;;;5116903;27;20043;-42
2023/12/23 02:51:34;;;;;;;3.15;2.40;;;22.10;43.30;;;;;;5121104;28;20038;-44
2023/12/23 02:54:00;;;;;;;2.50;2.30;;;22.00;43.30;;;;;;5120979;27;20024;-43
2023/12/23 02:56:26;;;;;;;2.70;2.42;;;22.10;42.90;;;;;;5121369;28;20035;-43
2023/12/23 02:58:53;;;;;;;2.97;2.58;;;22.30;42.70;;;;;;5122012;28;20035;-43
2023/12/23 03:01:20;;;;;;;3.25;2.53;;;22.30;42.70;;;;;;5106561;27;20547;-43
2023/12/23 03:03:46;;;;;;;2.92;2.55;;;22.30;43.00;;;;;;5109932;28;20092;-43
2023/12/23 03:06:16;;;;;;;2.75;2.38;;;22.20;43.10;;;;;;5097825;28;20036;-41
2023/12/23 03:08:42;;;;;;;2.92;2.47;;;22.10;43.20;;;;;;5117565;28;20019;-42
2023/12/23 03:11:09;;;;;;;3.67;2.63;;;22.00;42.90;;;;;;5116537;28;20053;-40
2023/12/23 03:13:35;;;;;;;3.47;2.80;;;22.10;42.80;;;;;;5119600;28;20016;-40
2023/12/23 03:16:01;;;;;;;3.00;2.70;;;22.20;42.80;;;;;;5112535;28;20035;-41
2023/12/23 03:18:27;;;;;;;2.80;2.50;;;22.10;43.10;;;;;;5119857;28;20043;-43
2023/12/23 03:20:53;;;;;;;3.78;2.88;;;22.00;43.20;;;;;;5111049;28;20024;-42
2023/12/23 03:23:19;;;;;;;3.53;2.53;;;22.00;43.20;;;;;;5112622;28;20053;-42
2023/12/23 03:25:46;;;;;;;3.33;2.40;;;21.90;43.30;;;;;;5118420;28;20050;-43
2023/12/23 03:28:12;;;;;;;3.33;2.60;;;22.00;43.60;;;;;;5111403;27;20024;-43
2023/12/23 03:30:38;;;;;;;3.25;2.60;;;22.20;42.90;;;;;;5105597;28;20023;-43
2023/12/23 03:33:04;;;;;;;3.38;2.95;;;22.30;42.90;;;;;;5115601;28;20028;-43
2023/12/23 03:35:30;;;;;;;3.30;2.88;;;22.20;42.90;;;;;;5121080;28;20087;-43
2023/12/23 03:37:56;;;;;;;3.90;2.53;;;22.20;43.10;;;;;;5115830;28;20039;-43
2023/12/23 03:40:23;;;;;;;2.88;2.65;;;22.10;43.20;;;;;;5121677;27;20035;-44
2023/12/23 03:42:49;;;;;;;2.90;2.60;;;22.00;43.10;;;;;;5127788;27;20027;-43
2023/12/23 03:45:16;;;;;;;3.10;2.70;;;22.10;43.20;;;;;;5116063;27;20031;-43
2023/12/23 03:47:43;;;;;;;3.22;2.92;;;22.20;43.00;;;;;;5115029;28;20526;-44
2023/12/23 03:50:10;;;;;;;3.95;3.15;;;22.10;43.50;;;;;;5121085;28;20036;-43
2023/12/23 03:52:36;;;;;;;3.30;2.70;;;22.00;43.40;;;;;;5119740;28;20066;-43
2023/12/23 03:55:02;;;;;;;3.85;2.97;;;22.00;43.60;;;;;;5113324;28;20120;-43
2023/12/23 03:57:28;;;;;;;2.95;2.70;;;21.90;43.60;;;;;;5119273;28;20093;-43
2023/12/23 03:59:54;;;;;;;3.40;2.90;;;22.00;43.10;;;;;;5120207;28;20065;-43
2023/12/23 04:02:20;;;;;;;4.05;2.90;;;22.20;43.20;;;;;;5117170;28;20024;-43
2023/12/23 04:04:47;;;;;;;3.15;2.85;;;22.20;43.20;;;;;;5112397;28;20036;-43
2023/12/23 04:07:13;;;;;;;5.00;3.10;;;22.30;43.20;;;;;;5111602;28;20031;-43
2023/12/23 04:09:40;;;;;;;3.45;2.95;;;22.30;43.10;;;;;;5112457;28;20051;-43
2023/12/23 04:12:06;;;;;;;;;;;22.30;43.00;;;;;;5117598;28;20055;-43
2023/12/23 04:14:34;;;;;;;3.72;2.80;;;22.40;43.00;;;;;;5113894;28;19912;-43
2023/12/23 04:17:00;;;;;;;3.50;2.90;;;22.40;42.90;;;;;;5117804;28;20063;-43
2023/12/23 04:19:26;;;;;;;3.17;2.83;;;22.40;42.80;;;;;;5112791;28;20032;-42
2023/12/23 04:21:52;;;;;;;4.55;3.20;;;22.40;43.00;;;;;;5111949;28;20119;-42
2023/12/23 04:24:20;;;;;;;4.03;3.00;;;22.30;43.10;;;;;;5114712;28;20036;-42
2023/12/23 04:26:46;;;;;;;3.50;2.90;;;22.20;43.10;;;;;;5136223;27;20066;-42
2023/12/23 04:29:12;;;;;;;3.65;2.80;;;22.20;43.10;;;;;;5111727;28;20093;-42
2023/12/23 04:31:39;;;;;;;4.90;3.10;;;22.20;43.30;;;;;;5108845;28;20028;-42
2023/12/23 04:34:05;;;;;;;6.57;3.13;;;22.20;43.20;;;;;;5121794;28;20035;-42
2023/12/23 04:36:32;;;;;;;4.03;3.28;;;22.30;43.10;;;;;;5114569;28;20032;-43
2023/12/23 04:38:58;;;;;;;4.07;3.40;;;22.20;43.10;;;;;;5103599;28;20024;-43
2023/12/23 04:41:24;;;;;;;3.38;3.08;;;22.20;43.10;;;;;;5120388;28;20028;-43
2023/12/23 04:43:50;;;;;;;3.70;2.70;;;22.10;43.20;;;;;;5121618;28;21276;-43
2023/12/23 04:46:16;;;;;;;3.55;3.05;;;22.10;43.30;;;;;;5119983;28;20032;-43
2023/12/23 04:48:42;;;;;;;3.30;2.85;;;22.10;43.20;;;;;;5117237;28;20046;-44
2023/12/23 04:51:08;;;;;;;3.20;2.90;;;22.20;43.10;;;;;;5112082;28;20024;-43
2023/12/23 04:53:35;;;;;;;3.88;2.97;;;22.20;43.10;;;;;;5112306;27;20028;-43
2023/12/23 04:56:01;;;;;;;3.38;2.90;;;22.10;43.20;;;;;;5115592;28;20028;-43
2023/12/23 04:58:27;;;;;;;4.07;2.90;;;22.20;43.10;;;;;;5120248;28;20059;-43
2023/12/23 05:00:53;;;;;;;3.17;2.80;;;22.20;43.00;;;;;;5112750;28;20034;-43
2023/12/23 05:03:19;;;;;;;4.03;2.90;;;22.30;43.00;;;;;;5114090;28;20032;-42
2023/12/23 05:05:45;;;;;;;3.83;3.20;;;22.40;42.80;;;;;;5111750;28;20024;-43
2023/12/23 05:08:16;;;;;;;4.88;3.33;;;22.30;42.90;;;;;;5111259;28;20096;-43
2023/12/23 05:10:44;;;;;;;4.05;3.13;;;22.30;43.00;;;;;;5109952;28;20028;-43
2023/12/23 05:13:10;;;;;;;3.88;3.13;;;22.20;43.10;;;;;;5112635;28;20027;-43
2023/12/23 05:15:37;;;;;;;4.25;3.28;;;22.20;43.10;;;;;;5107260;28;20031;-43
2023/12/23 05:18:03;;;;;;;4.47;3.38;;;22.20;43.30;;;;;;5106588;28;20052;-43
2023/12/23 05:20:29;;;;;;;4.90;3.40;;;22.20;43.20;;;;;;5119305;28;20084;-43
2023/12/23 05:22:55;;;;;;;4.45;2.90;;;22.20;43.00;;;;;;5089666;28;20800;-42
2023/12/23 05:25:21;;;;;;;3.17;2.88;;;22.20;43.10;;;;;;5109243;28;20032;-43
2023/12/23 05:27:47;;;;;;;3.38;3.03;;;22.10;43.10;;;;;;5099534;28;20036;-42
2023/12/23 05:30:14;;;;;;;4.00;2.88;;;22.10;43.20;;;;;;5123409;28;20073;-43
2023/12/23 05:32:40;;;;;;;4.65;3.30;;;22.10;43.30;;;;;;5117815;28;20024;-42
2023/12/23 05:35:07;;;;;;;5.80;3.33;;;22.10;43.40;;;;;;5112766;28;20089;-43
2023/12/23 05:37:34;;;;;;;5.57;3.20;;;22.20;43.30;;;;;;5117730;28;20036;-43
2023/12/23 05:40:00;;;;;;;3.92;3.30;;;22.10;43.20;;;;;;5129317;27;20389;-44
2023/12/23 05:42:26;;;;;;;3.72;3.05;;;22.20;43.30;;;;;;5120975;27;20051;-43
2023/12/23 05:44:52;;;;;;;4.20;3.30;;;22.30;43.30;;;;;;5108804;28;20031;-44
2023/12/23 05:47:18;;;;;;;3.08;2.75;;;22.30;43.20;;;;;;5106468;28;20676;-43
2023/12/23 05:49:44;;;;;;;5.43;3.00;;;22.40;43.10;;;;;;5116046;28;20044;-43
2023/12/23 05:52:11;;;;;;;3.53;2.88;;;22.50;43.00;;;;;;5113643;27;20475;-44
2023/12/23 05:54:37;;;;;;;3.80;2.83;;;22.50;43.00;;;;;;5122384;27;20100;-43
2023/12/23 05:57:03;;;;;;;3.58;3.20;;;22.40;43.00;;;;;;5118335;28;20039;-43
2023/12/23 05:59:29;;;;;;;4.18;3.10;;;22.40;43.20;;;;;;5114248;28;20028;-43
2023/12/23 06:01:55;;;;;;;4.05;3.30;;;22.30;43.30;;;;;;5111725;27;20092;-43
2023/12/23 06:04:21;;;;;;;4.82;3.20;;;22.30;43.30;;;;;;5115107;28;20035;-44
2023/12/23 06:06:47;;;;;;;5.18;3.50;;;22.30;43.40;;;;;;5100973;28;20039;-43
2023/12/23 06:09:14;;;;;;;4.22;3.45;;;22.20;43.20;;;;;;5113355;28;20115;-43
2023/12/23 06:11:40;;;;;;;4.15;3.30;;;22.20;43.10;;;;;;5123115;28;20034;-43
2023/12/23 06:14:06;;;;;;;4.00;3.47;;;22.20;43.30;;;;;;5109482;28;20024;-43
2023/12/23 06:16:38;;;;;;;4.30;3.17;;;22.10;43.40;;;;;;5120712;28;20032;-43
2023/12/23 06:19:04;;;;;;;4.15;3.38;;;22.10;43.30;;;;;;5115570;28;20032;-43
2023/12/23 06:21:31;;;;;;;3.92;3.28;;;22.10;43.50;;;;;;5110605;28;20027;-43
2023/12/23 06:23:57;;;;;;;4.72;3.78;;;22.10;43.50;;;;;;5120054;28;20039;-43
2023/12/23 06:26:23;;;;;;;3.70;3.03;;;22.10;43.30;;;;;;5114380;27;20083;-44
2023/12/23 06:28:49;;;;;;;3.30;3.00;;;22.10;43.30;;;;;;5113444;28;20031;-44
2023/12/23 06:31:15;;;;;;;4.28;3.28;;;22.20;43.30;;;;;;5119100;28;20797;-44
2023/12/23 06:33:41;;;;;;;3.88;3.35;;;22.30;43.20;;;;;;5112863;28;20038;-44
2023/12/23 06:36:08;;;;;;;3.95;3.20;;;22.40;43.20;;;;;;5117753;28;20065;-45
2023/12/23 06:38:37;;;;;;;4.45;3.28;;;22.50;43.10;;;;;;5113587;28;20062;-44
2023/12/23 06:41:04;;;;;;;3.92;3.45;;;22.50;43.10;;;;;;5120742;28;20050;-46
2023/12/23 06:43:30;;;;;;;4.47;3.35;;;22.50;43.00;;;;;;5108723;28;20047;-45
2023/12/23 06:45:57;;;;;;;4.00;3.20;;;22.50;43.10;;;;;;5119514;28;20495;-46
2023/12/23 06:48:23;;;;;;;6.20;3.75;;;22.40;43.20;;;;;;5099819;28;20044;-44
2023/12/23 06:50:49;;;;;;;6.13;3.38;;;22.30;43.20;;;;;;5118424;28;20057;-44
2023/12/23 06:53:15;;;;;;;4.70;3.10;;;22.30;43.30;;;;;;5109957;27;20024;-43
2023/12/23 06:55:41;;;;;;;4.03;3.30;;;22.30;43.30;;;;;;5115299;27;20079;-43
2023/12/23 06:58:07;;;;;;;5.00;3.45;;;22.30;43.60;;;;;;5109338;27;20046;-44
2023/12/23 07:00:33;;;;;;;4.75;3.65;;;22.30;44.00;;;;;;5114387;28;20088;-43
2023/12/23 07:03:00;;;;;;;4.47;3.88;;;22.30;44.00;;;;;;5105501;28;20031;-43
2023/12/23 07:05:26;;;;;;;7.90;4.18;;;22.20;43.90;;;;;;5116066;28;20044;-44
2023/12/23 07:07:52;;;;;;;4.47;3.67;;;22.10;44.00;;;;;;5117014;28;20031;-44
2023/12/23 07:10:18;;;;;;;5.68;3.47;;;22.10;44.00;;;;;;5108399;27;20023;-44
2023/12/23 07:12:44;;;;;;;5.30;3.50;;;22.10;43.80;;;;;;5108302;28;20024;-43
2023/12/23 07:15:10;;;;;;;4.07;3.30;;;22.20;43.60;;;;;;5107500;28;20020;-43
2023/12/23 07:17:37;;;;;;;4.45;3.47;;;22.20;43.50;;;;;;5112091;28;20095;-43
2023/12/23 07:20:03;;;;;;;4.40;3.53;;;22.30;43.50;;;;;;5109939;28;20766;-43
2023/12/23 07:22:30;;;;;;;5.03;3.47;;;22.40;43.40;;;;;;5089967;28;20039;-43
2023/12/23 07:24:56;;;;;;;4.03;3.22;;;22.40;43.40;;;;;;5111422;28;20024;-43
2023/12/23 07:27:22;;;;;;;4.63;3.05;;;22.50;43.30;;;;;;5114197;28;20057;-43
2023/12/23 07:29:48;;;;;;;4.47;3.80;;;22.50;43.20;;;;;;5110318;28;20024;-43
2023/12/23 07:32:14;;;;;;;4.82;3.78;;;22.50;43.10;;;;;;5118943;28;20110;-43
2023/12/23 07:34:41;;;;;;;5.25;3.60;;;22.40;43.30;;;;;;5110093;28;20027;-42
2023/12/23 07:37:09;;;;;;;4.22;3.67;;;22.30;43.30;;;;;;5097308;28;20066;-42
2023/12/23 07:39:35;;;;;;;5.35;3.85;;;22.30;43.40;;;;;;5117822;28;20396;-42
2023/12/23 07:42:01;;;;;;;4.60;3.47;;;22.20;43.50;;;;;;5122097;28;20027;-42
2023/12/23 07:44:27;;;;;;;4.95;4.03;;;22.20;43.40;;;;;;5119434;28;20047;-42
2023/12/23 07:46:53;;;;;;;4.05;3.60;;;22.20;43.30;;;;;;5114866;28;20476;-42
2023/12/23 07:49:19;;;;;;;4.20;3.53;;;22.20;43.30;;;;;;5115280;27;20047;-45
2023/12/23 07:51:46;;;;;;;5.22;3.85;;;22.10;43.50;;;;;;5114032;28;20092;-45
2023/12/23 07:54:12;;;;;;;5.07;4.10;;;22.00;43.40;;;;;;5110081;28;20059;-45
2023/12/23 07:56:38;;;;;;;4.43;3.78;;;22.00;43.50;;;;;;5107576;28;20032;-45
2023/12/23 07:59:04;;;;;;;4.78;3.92;;;22.00;43.50;;;;;;5110314;28;20039;-45
2023/12/23 08:01:32;;;;;;;4.60;3.50;;;22.00;43.40;;;;;;5116831;28;20035;-45
2023/12/23 08:03:57;;;;;;;;;;;22.00;43.30;;;;;;5100586;28;20023;-46
2023/12/23 08:06:24;;;;;;;3.97;3.45;;;22.10;43.30;;;;;;5113263;28;19970;-44
2023/12/23 08:08:50;;;;;;;4.13;3.25;;;22.20;43.40;;;;;;5117197;28;20058;-45
2023/12/23 08:11:16;;;;;;;3.78;3.28;;;22.30;43.40;;;;;;5115401;28;20132;-45
2023/12/23 08:13:42;;;;;;;5.10;3.10;;;22.30;43.30;;;;;;5111144;27;20579;-44
2023/12/23 08:16:09;;;;;;;3.92;3.38;;;22.40;43.20;;;;;;5116485;28;20053;-45
2023/12/23 08:18:35;;;;;;;4.53;3.80;;;22.40;43.20;;;;;;5104110;28;20032;-44
2023/12/23 08:21:03;;;;;;;5.63;3.47;;;22.40;43.20;;;;;;5110939;28;20434;-42
2023/12/23 08:23:29;;;;;;;3.97;3.58;;;22.30;43.20;;;;;;5118965;28;20035;-42
2023/12/23 08:25:55;;;;;;;5.00;3.65;;;22.20;43.30;;;;;;5116848;28;20533;-44
2023/12/23 08:28:21;;;;;;;4.95;3.90;;;22.20;43.30;;;;;;5098463;28;20600;-45
2023/12/23 08:30:47;;;;;;;4.43;3.90;;;22.20;43.50;;;;;;5109569;28;20046;-44
2023/12/23 08:33:14;;;;;;;4.93;3.83;;;22.10;43.40;;;;;;5112283;28;20041;-44
2023/12/23 08:35:40;;;;;;;6.05;4.10;;;22.10;43.30;;;;;;5113825;28;20023;-44
2023/12/23 08:38:06;;;;;;;4.07;3.30;;;22.10;43.40;;;;;;5111406;28;20043;-44
2023/12/23 08:40:32;;;;;;;5.45;4.05;;;22.00;43.40;;;;;;5106849;28;20115;-44
2023/12/23 08:42:58;;;;;;;5.63;3.72;;;22.00;43.40;;;;;;5115884;28;20031;-44
2023/12/23 08:45:24;;;;;;;5.38;4.22;;;21.90;43.40;;;;;;5114304;28;20032;-44
2023/12/23 08:47:51;;;;;;;5.07;4.03;;;22.00;43.50;;;;;;5117050;28;20032;-44
2023/12/23 08:50:20;;;;;;;3.58;3.28;;;21.90;43.80;;;;;;5120112;28;20040;-44
2023/12/23 08:52:46;;;;;;;4.63;3.80;;;22.00;43.70;;;;;;5115853;28;20035;-44
2023/12/23 08:55:12;;;;;;;4.38;3.50;;;22.10;43.50;;;;;;5113426;28;20027;-44
2023/12/23 08:57:38;;;;;;;4.05;3.65;;;22.10;43.40;;;;;;5122128;28;20038;-44
2023/12/23 09:00:06;;;;;;;4.20;3.60;;;22.20;43.40;;;;;;5117269;28;20024;-44
2023/12/23 09:02:32;;;;;;;5.43;3.55;;;22.30;43.30;;;;;;5118077;28;20035;-44
2023/12/23 09:04:58;;;;;;;4.35;3.70;;;22.40;43.20;;;;;;5122388;28;20028;-44
2023/12/23 09:07:25;;;;;;;4.22;3.75;;;22.40;43.10;;;;;;5113030;28;20046;-44
2023/12/23 09:09:51;;;;;;;4.32;3.60;;;22.30;43.00;;;;;;5117467;28;20027;-44
2023/12/23 09:12:19;;;;;;;4.60;4.05;;;22.30;43.10;;;;;;5107536;28;20075;-44
2023/12/23 09:14:47;;;;;;;4.78;3.80;;;22.20;43.20;;;;;;5103018;28;20023;-47
2023/12/23 09:17:13;;;;;;;4.07;3.60;;;22.10;43.20;;;;;;5110313;28;20411;-44
2023/12/23 09:19:39;;;;;;;5.30;4.20;;;22.10;43.30;;;;;;5112734;28;20050;-43
2023/12/23 09:22:05;;;;;;;5.28;3.78;;;22.10;43.20;;;;;;5102557;28;20395;-44
2023/12/23 09:24:31;;;;;;;6.00;3.80;;;22.10;43.20;;;;;;5118794;28;20032;-44
2023/12/23 09:26:57;;;;;;;4.38;3.78;;;22.00;43.30;;;;;;5116123;28;20053;-44
2023/12/23 09:29:23;;;;;;;4.00;3.42;;;22.00;43.40;;;;;;5120041;28;20468;-44
2023/12/23 09:31:49;;;;;;;4.05;3.58;;;21.90;43.50;;;;;;5116559;28;20016;-44
2023/12/23 09:34:16;;;;;;;4.97;3.78;;;21.80;43.50;;;;;;5111004;28;20032;-45
2023/12/23 09:36:42;;;;;;;4.28;3.85;;;21.90;43.40;;;;;;5120030;28;20038;-44
2023/12/23 09:39:08;;;;;;;4.85;3.83;;;22.00;43.30;;;;;;5117995;28;20031;-44
2023/12/23 09:41:34;;;;;;;3.90;3.40;;;22.00;43.20;;;;;;5121948;28;20055;-44
2023/12/23 09:44:00;;;;;;;3.70;3.30;;;22.10;43.20;;;;;;5118729;27;20197;-44
2023/12/23 09:46:26;;;;;;;4.60;3.65;;;22.20;43.10;;;;;;5108667;28;20042;-44
2023/12/23 09:48:53;;;;;;;4.00;3.33;;;22.30;43.20;;;;;;5119504;28;20058;-44
2023/12/23 09:51:19;;;;;;;3.47;3.17;;;22.30;43.00;;;;;;5123560;28;20027;-44
2023/12/23 09:53:48;;;;;;;4.93;3.75;;;22.40;43.00;;;;;;5100221;28;20024;-45
2023/12/23 09:56:15;;;;;;;3.72;3.42;;;22.40;42.90;;;;;;5121339;28;20031;-45
2023/12/23 09:58:44;;;;;;;4.07;3.65;;;22.30;42.90;;;;;;5121322;28;20082;-46
2023/12/23 10:01:10;;;;;;;4.57;3.72;;;22.30;43.00;;;;;;5110365;28;20023;-45
2023/12/23 10:03:36;;;;;;;4.30;3.90;;;22.20;43.10;;;;;;5115003;28;20027;-46
2023/12/23 10:06:03;;;;;;;4.43;3.97;;;22.10;43.00;;;;;;5114583;28;20039;-45
2023/12/23 10:08:29;;;;;;;4.20;3.42;;;22.10;43.20;;;;;;5112770;28;20020;-45
2023/12/23 10:10:55;;;;;;;4.10;3.70;;;22.10;43.10;;;;;;5111819;28;20055;-46
2023/12/23 10:13:21;;;;;;;4.82;4.03;;;22.10;43.10;;;;;;5108837;28;20091;-45
2023/12/23 10:15:47;;;;;;;4.40;3.70;;;22.00;43.20;;;;;;5110334;28;20035;-45
2023/12/23 10:18:14;;;;;;;4.47;3.90;;;22.00;43.30;;;;;;5110975;28;20531;-45
2023/12/23 10:20:42;;;;;;;4.82;4.13;;;21.90;43.30;;;;;;5110196;28;20042;-46
2023/12/23 10:23:09;;;;;;;4.13;3.70;;;21.90;43.50;;;;;;5109684;28;20103;-44
2023/12/23 10:25:35;;;;;;;3.80;3.40;;;21.90;43.30;;;;;;5111501;27;20020;-44
2023/12/23 10:28:01;;;;;;;4.15;3.70;;;22.00;43.20;;;;;;5110025;28;20093;-43
2023/12/23 10:30:28;;;;;;;4.70;3.92;;;22.10;43.10;;;;;;5113810;28;20036;-44
2023/12/23 10:32:54;;;;;;;;;;;22.20;43.10;;;;;;5110459;28;20032;-44
2023/12/23 10:35:20;;;;;;;4.22;3.67;;;22.30;43.10;;;;;;5113742;28;19919;-44
2023/12/23 10:37:47;;;;;;;7.00;3.58;;;22.30;43.10;;;;;;5110737;28;20063;-45
2023/12/23 10:40:21;;;;;;;3.63;3.17;;;22.40;43.00;;;;;;5111439;28;20050;-45
2023/12/23 10:42:47;;;;;;;4.53;3.50;;;22.40;42.90;;;;;;5115176;28;20039;-45
2023/12/23 10:45:14;;;;;;;4.60;3.83;;;22.40;42.80;;;;;;5098403;28;20024;-45
2023/12/23 10:47:40;;;;;;;4.60;3.75;;;22.30;42.90;;;;;;5103886;28;20040;-45
2023/12/23 10:50:08;;;;;;;4.60;4.07;;;22.20;42.90;;;;;;5114071;28;20088;-45
2023/12/23 10:52:34;;;;;;;3.75;3.38;;;22.20;43.00;;;;;;5115361;28;20051;-45
2023/12/23 10:55:01;;;;;;;6.35;3.63;;;22.20;43.20;;;;;;5114491;28;20032;-44
2023/12/23 10:57:32;;;;;;;4.25;3.85;;;22.10;43.10;;;;;;5107456;28;20063;-45
2023/12/23 10:59:58;;;;;;;5.72;4.10;;;22.10;43.10;;;;;;5092554;28;20028;-44
2023/12/23 11:02:34;;;;;;;4.17;3.77;;;22.10;43.20;;;;;;5098549;28;20059;-44
2023/12/23 11:05:02;;;;;;;4.65;3.90;;;22.00;43.20;;;;;;5108239;28;20063;-45
2023/12/23 11:07:31;;;;;;;4.35;3.95;;;21.90;43.20;;;;;;5094655;28;20032;-44
2023/12/23 11:10:01;;;;;;;5.60;4.10;;;21.90;43.30;;;;;;5114155;28;20055;-44
2023/12/23 11:12:30;;;;;;;4.25;3.42;;;21.90;43.20;;;;;;5100632;28;20049;-44
2023/12/23 11:14:58;;;;;;;5.18;4.03;;;22.00;43.10;;;;;;5117197;28;20066;-44
2023/12/23 11:17:25;;;;;;;3.95;3.50;;;22.10;43.00;;;;;;5087768;28;20084;-43
2023/12/23 11:19:54;;;;;;;4.10;3.70;;;22.10;43.00;;;;;;5115633;28;20032;-44
2023/12/23 11:22:24;;;;;;;3.80;3.25;;;22.20;43.00;;;;;;5112914;28;20034;-43
2023/12/23 11:24:50;;;;;;;4.43;3.60;;;22.30;42.90;;;;;;5118647;28;20047;-44
2023/12/23 11:27:29;;;;;;;4.13;3.50;;;22.30;42.90;;;;;;5115766;28;20063;-44
2023/12/23 11:29:57;;;;;;;4.78;3.80;;;22.30;42.80;;;;;;5111570;28;20034;-44
2023/12/23 11:32:25;;;;;;;4.35;3.42;;;22.30;42.80;;;;;;5110294;28;20043;-44
2023/12/23 11:34:52;;;;;;;5.53;3.78;;;22.20;42.90;;;;;;5115134;28;20060;-46
2023/12/23 11:37:20;;;;;;;4.30;3.70;;;22.20;42.90;;;;;;5112409;28;20040;-44
2023/12/23 11:39:46;;;;;;;5.28;3.78;;;22.10;42.90;;;;;;5097407;28;20036;-44
2023/12/23 11:42:12;;;;;;;4.32;3.58;;;22.10;43.00;;;;;;5108643;28;20801;-45
2023/12/23 11:44:39;;;;;;;5.40;3.80;;;22.10;43.00;;;;;;5096117;28;20136;-45
2023/12/23 11:47:05;;;;;;;5.40;4.22;;;22.10;42.90;;;;;;5111363;28;20039;-45
2023/12/23 11:49:31;;;;;;;4.32;3.70;;;22.00;43.00;;;;;;5111736;28;20108;-44
2023/12/23 11:51:57;;;;;;;4.95;3.95;;;21.90;43.10;;;;;;5115337;28;20040;-44
2023/12/23 11:54:24;;;;;;;5.63;3.67;;;21.80;43.10;;;;;;5118983;28;20023;-43
2023/12/23 11:56:50;;;;;;;5.05;3.70;;;21.90;43.20;;;;;;5118488;28;20028;-42
2023/12/23 11:59:16;;;;;;;4.05;3.53;;;22.00;43.00;;;;;;5105824;28;20035;-42
2023/12/23 12:01:42;;;;;;;4.20;3.65;;;22.10;42.90;;;;;;5090911;28;20024;-44
2023/12/23 12:04:09;;;;;;;3.88;3.47;;;22.20;42.90;;;;;;5116767;28;20111;-42
2023/12/23 12:06:35;;;;;;;4.43;3.70;;;22.20;43.00;;;;;;5118769;28;20038;-41
2023/12/23 12:09:01;;;;;;;4.18;3.40;;;22.30;43.00;;;;;;5115800;28;20028;-41
2023/12/23 12:11:28;;;;;;;4.22;3.40;;;22.30;42.90;;;;;;5115624;28;20042;-42
2023/12/23 12:13:59;;;;;;;4.43;3.38;;;22.40;42.80;;;;;;5097211;28;20024;-42
2023/12/23 12:16:25;;;;;;;4.25;3.53;;;22.40;42.70;;;;;;5095211;28;20040;-41
2023/12/23 12:18:51;;;;;;;4.80;3.70;;;22.30;42.70;;;;;;5115041;28;20087;-42
2023/12/23 12:21:17;;;;;;;5.57;3.90;;;22.30;42.80;;;;;;5119975;28;20019;-42
2023/12/23 12:23:43;;;;;;;5.35;3.60;;;22.20;42.80;;;;;;5114382;28;20036;-42
2023/12/23 12:26:09;;;;;;;3.95;3.40;;;22.20;42.90;;;;;;5117873;28;20027;-42
2023/12/23 12:28:35;;;;;;;4.32;3.72;;;22.10;43.00;;;;;;5120589;28;20020;-42
2023/12/23 12:31:09;;;;;;;4.43;3.95;;;22.10;42.90;;;;;;5096557;28;20031;-42
2023/12/23 12:33:37;;;;;;;5.45;3.92;;;22.10;42.90;;;;;;5122687;28;20026;-42
2023/12/23 12:36:04;;;;;;;5.00;3.85;;;22.00;42.90;;;;;;5099026;28;20037;-42
2023/12/23 12:38:30;;;;;;;5.00;3.83;;;22.00;43.00;;;;;;5105515;28;20062;-42
2023/12/23 12:40:56;;;;;;;4.65;3.83;;;21.90;43.00;;;;;;5091464;28;20020;-42
2023/12/23 12:43:25;;;;;;;4.53;4.00;;;21.90;43.20;;;;;;5091274;28;20028;-42